Time;durP1;ratioP1;P1;durP2;ratioP2;P2;SDS_P1;SDS_P2;PMS_P1;PMS_P2;Temp;Humidity;BMP_temperature;BMP_pressure;BME280_temperature;BME280_humidity;BME280_pressure;Samples;Min_cycle;Max_cycle;Signal;HPM_P1;HPM_P2
2023/05/22 00:03:15;;;;;;;8.85;5.53;;;;;;;;;;12913897;23;20024;-86
2023/05/22 00:08:20;;;;;;;8.13;5.22;;;;;;;;;;12886747;23;20028;-86
2023/05/22 00:13:23;;;;;;;6.25;5.47;;;;;;;;;;12886747;23;20024;-86
2023/05/22 00:18:26;;;;;;;6.00;5.32;;;;;;;;;;12886708;23;20020;-85
2023/05/22 00:23:31;;;;;;;6.55;5.10;;;;;;;;;;12913491;23;20024;-85
2023/05/22 00:28:35;;;;;;;5.70;5.05;;;;;;;;;;12888548;23;20024;-85
2023/05/22 00:33:38;;;;;;;6.15;5.20;;;;;;;;;;12891296;23;20388;-87
2023/05/22 00:38:43;;;;;;;7.22;5.28;;;;;;;;;;12917887;23;20028;-85
2023/05/22 00:43:46;;;;;;;5.63;4.85;;;;;;;;;;12890753;23;20043;-86
2023/05/22 00:48:51;;;;;;;7.43;5.60;;;;;;;;;;12918380;23;20072;-86
2023/05/22 00:53:56;;;;;;;5.30;4.80;;;;;;;;;;12924752;23;20035;-85
2023/05/22 00:59:00;;;;;;;6.10;5.03;;;;;;;;;;12890451;23;20645;-86
2023/05/22 01:04:06;;;;;;;7.75;5.55;;;;;;;;;;12890860;23;20028;-86
2023/05/22 01:09:12;;;;;;;7.07;5.43;;;;;;;;;;12890957;23;20102;-86
2023/05/22 01:14:21;;;;;;;7.15;4.95;;;;;;;;;;12890644;23;20082;-86
2023/05/22 01:19:40;;;;;;;5.88;4.85;;;;;;;;;;12890251;23;20082;-87
2023/05/22 01:25:00;;;;;;;6.72;5.43;;;;;;;;;;12890698;23;20023;-87
2023/05/22 01:30:19;;;;;;;6.43;5.00;;;;;;;;;;12889813;23;20054;-87
2023/05/22 01:35:25;;;;;;;6.57;5.15;;;;;;;;;;12891171;23;20386;-86
2023/05/22 01:40:30;;;;;;;6.22;5.50;;;;;;;;;;12915846;23;20432;-86
2023/05/22 01:45:34;;;;;;;6.20;5.22;;;;;;;;;;12852350;23;20032;-86
2023/05/22 01:50:40;;;;;;;5.72;5.05;;;;;;;;;;12824718;23;20020;-87
2023/05/22 01:55:54;;;;;;;6.00;5.15;;;;;;;;;;12827429;23;20098;-86
2023/05/22 02:01:00;;;;;;;6.03;5.07;;;;;;;;;;12827159;23;20031;-86
2023/05/22 02:06:08;;;;;;;8.20;5.03;;;;;;;;;;12827279;23;20476;-87
2023/05/22 02:11:15;;;;;;;5.63;4.93;;;;;;;;;;12826989;23;20016;-88
2023/05/22 02:16:20;;;;;;;7.73;5.30;;;;;;;;;;12827625;23;20021;-85
2023/05/22 02:21:25;;;;;;;6.32;5.53;;;;;;;;;;12851060;23;20024;-86
2023/05/22 02:26:29;;;;;;;5.60;4.68;;;;;;;;;;12826923;23;20074;-86
2023/05/22 02:31:33;;;;;;;6.32;4.65;;;;;;;;;;12826513;23;20024;-85
2023/05/22 02:36:38;;;;;;;5.25;4.63;;;;;;;;;;12826726;23;20051;-86
2023/05/22 02:41:42;;;;;;;6.35;4.72;;;;;;;;;;12826125;23;20025;-85
2023/05/22 02:46:46;;;;;;;5.75;4.70;;;;;;;;;;12826713;23;20098;-86
2023/05/22 02:51:51;;;;;;;7.50;5.03;;;;;;;;;;12825819;23;20031;-86
2023/05/22 02:56:54;;;;;;;5.80;4.75;;;;;;;;;;12825945;23;20090;-85
2023/05/22 03:01:58;;;;;;;6.07;5.38;;;;;;;;;;12825375;23;20017;-85
2023/05/22 03:07:02;;;;;;;6.50;4.93;;;;;;;;;;12826032;23;20025;-86
2023/05/22 03:12:07;;;;;;;5.53;4.47;;;;;;;;;;12824447;23;20075;-86
2023/05/22 03:17:10;;;;;;;5.22;4.72;;;;;;;;;;12825192;23;20461;-85
2023/05/22 03:22:17;;;;;;;5.78;4.57;;;;;;;;;;12865146;23;20017;-84
2023/05/22 03:27:20;;;;;;;6.07;4.97;;;;;;;;;;12826473;23;20040;-86
2023/05/22 03:32:25;;;;;;;6.22;5.20;;;;;;;;;;12824618;23;20020;-85
2023/05/22 03:37:30;;;;;;;6.45;5.22;;;;;;;;;;12825037;23;20024;-86
2023/05/22 03:42:33;;;;;;;6.10;5.22;;;;;;;;;;12825334;23;20075;-85
2023/05/22 03:47:37;;;;;;;6.10;5.22;;;;;;;;;;12864262;23;20152;-87
2023/05/22 03:52:41;;;;;;;6.90;5.20;;;;;;;;;;12824859;23;20024;-86
2023/05/22 03:57:45;;;;;;;5.77;5.00;;;;;;;;;;12862502;23;20554;-87
2023/05/22 04:02:49;;;;;;;8.73;5.30;;;;;;;;;;12824347;23;20075;-86
2023/05/22 04:07:53;;;;;;;6.13;4.47;;;;;;;;;;12825176;23;20024;-84
2023/05/22 04:12:57;;;;;;;5.97;4.50;;;;;;;;;;12851251;23;20067;-86
2023/05/22 04:18:01;;;;;;;5.57;4.38;;;;;;;;;;12823968;23;20032;-86
2023/05/22 04:23:06;;;;;;;5.35;4.00;;;;;;;;;;12823910;23;20462;-86
2023/05/22 04:28:09;;;;;;;5.43;4.30;;;;;;;;;;12850983;23;20536;-87
2023/05/22 04:33:12;;;;;;;6.00;4.82;;;;;;;;;;12860225;23;20025;-88
2023/05/22 04:38:17;;;;;;;6.03;4.07;;;;;;;;;;12860658;23;20024;-87
2023/05/22 04:43:22;;;;;;;7.88;5.25;;;;;;;;;;12824737;23;20021;-87
2023/05/22 04:48:26;;;;;;;8.13;5.85;;;;;;;;;;12824829;23;20099;-87
2023/05/22 04:53:32;;;;;;;5.90;4.88;;;;;;;;;;12823393;23;20020;-86
2023/05/22 04:58:36;;;;;;;6.20;4.70;;;;;;;;;;12827765;23;20036;-87
2023/05/22 05:03:41;;;;;;;5.72;4.68;;;;;;;;;;12827102;23;20489;-87
2023/05/22 05:08:48;;;;;;;5.88;4.85;;;;;;;;;;12855154;23;20228;-89
2023/05/22 05:13:51;;;;;;;5.25;4.22;;;;;;;;;;12882533;23;20024;-89
2023/05/22 05:18:55;;;;;;;5.47;4.82;;;;;;;;;;12884769;23;20024;-91
2023/05/22 05:24:00;;;;;;;6.13;3.92;;;;;;;;;;12843143;23;20059;-88
2023/05/22 05:29:04;;;;;;;5.05;4.53;;;;;;;;;;12861973;23;20039;-90
2023/05/22 05:34:13;;;;;;;5.63;5.03;;;;;;;;;;12881348;23;20432;-88
2023/05/22 05:39:33;;;;;;;6.20;5.07;;;;;;;;;;12903754;23;20039;-89
2023/05/22 05:44:39;;;;;;;7.75;4.82;;;;;;;;;;12880722;23;20020;-92
2023/05/22 05:49:56;;;;;;;7.25;4.80;;;;;;;;;;12884545;23;20089;-92
2023/05/22 05:55:04;;;;;;;6.03;4.90;;;;;;;;;;12884565;23;20027;-88
2023/05/22 06:00:10;;;;;;;9.57;5.15;;;;;;;;;;12881618;23;20035;-89
2023/05/22 06:05:18;;;;;;;9.02;6.35;;;;;;;;;;12908997;23;20044;-91
2023/05/22 06:10:25;;;;;;;8.63;6.15;;;;;;;;;;12882473;23;20078;-89
2023/05/22 06:15:48;;;;;;;11.05;8.32;;;;;;;;;;12883900;23;20023;-89
2023/05/22 06:20:52;;;;;;;10.57;7.55;;;;;;;;;;12885447;23;20333;-89
2023/05/22 06:26:03;;;;;;;8.38;6.72;;;;;;;;;;12886823;23;20016;-88
2023/05/22 06:31:08;;;;;;;8.02;6.43;;;;;;;;;;12880847;23;20020;-90
2023/05/22 06:36:25;;;;;;;8.82;6.68;;;;;;;;;;12860209;23;20025;-88
2023/05/22 06:41:33;;;;;;;9.13;6.80;;;;;;;;;;12880754;23;20029;-88
2023/05/22 06:46:38;;;;;;;9.15;7.25;;;;;;;;;;12883868;23;20044;-88
2023/05/22 06:51:42;;;;;;;9.40;7.07;;;;;;;;;;12887383;23;20026;-88
2023/05/22 06:56:49;;;;;;;11.98;9.18;;;;;;;;;;12887740;23;20032;-89
2023/05/22 07:01:55;;;;;;;9.57;7.60;;;;;;;;;;12879151;23;20028;-89
2023/05/22 07:07:17;;;;;;;8.23;6.38;;;;;;;;;;12927930;23;20020;-89
2023/05/22 07:12:24;;;;;;;12.90;10.32;;;;;;;;;;12883503;23;20040;-93
2023/05/22 07:17:30;;;;;;;11.57;8.38;;;;;;;;;;12884758;23;20024;-90
2023/05/22 07:22:34;;;;;;;10.40;8.55;;;;;;;;;;12885937;23;20367;-88
2023/05/22 07:27:42;;;;;;;15.43;11.07;;;;;;;;;;12886964;23;20024;-88
2023/05/22 07:32:46;;;;;;;11.77;9.02;;;;;;;;;;12885315;23;20024;-88
2023/05/22 07:37:51;;;;;;;10.70;8.93;;;;;;;;;;12885359;23;20031;-88
2023/05/22 07:42:56;;;;;;;16.00;11.02;;;;;;;;;;12883804;23;20027;-91
2023/05/22 07:48:02;;;;;;;10.55;8.05;;;;;;;;;;12886619;23;20028;-91
2023/05/22 07:53:09;;;;;;;10.32;7.35;;;;;;;;;;12885756;23;20359;-91
2023/05/22 07:58:19;;;;;;;24.30;15.85;;;;;;;;;;12884703;23;20035;-91
2023/05/22 08:03:25;;;;;;;12.73;10.88;;;;;;;;;;12884718;23;20020;-88
2023/05/22 08:08:28;;;;;;;9.65;7.95;;;;;;;;;;12909171;23;20051;-94
2023/05/22 08:13:36;;;;;;;12.37;10.30;;;;;;;;;;12919395;23;20467;-89
2023/05/22 08:18:42;;;;;;;17.98;8.02;;;;;;;;;;12910045;23;20028;-89
2023/05/22 08:23:46;;;;;;;18.40;13.30;;;;;;;;;;12897356;23;20954;-88
2023/05/22 08:28:51;;;;;;;12.27;9.52;;;;;;;;;;12881769;23;20016;-89
2023/05/22 08:34:00;;;;;;;13.87;10.03;;;;;;;;;;12908798;23;20026;-87
2023/05/22 08:39:06;;;;;;;15.25;11.63;;;;;;;;;;12911405;23;20023;-88
2023/05/22 08:44:12;;;;;;;9.93;7.67;;;;;;;;;;12882697;23;20077;-86
2023/05/22 08:49:17;;;;;;;17.77;13.32;;;;;;;;;;12883730;23;20255;-87
2023/05/22 08:54:22;;;;;;;17.95;14.90;;;;;;;;;;12886828;23;20024;-88
2023/05/22 08:59:28;;;;;;;11.80;9.25;;;;;;;;;;12885227;23;20606;-88
2023/05/22 09:04:34;;;;;;;;;;;;;;;;;;12911001;23;20020;-88
2023/05/22 09:09:37;;;;;;;;;;;;;;;;;;12914229;23;19926;-92
2023/05/22 09:14:43;;;;;;;9.30;7.72;;;;;;;;;;12915163;23;20381;-87
2023/05/22 09:19:48;;;;;;;12.73;10.10;;;;;;;;;;12909287;23;20051;-89
2023/05/22 09:24:52;;;;;;;16.00;13.40;;;;;;;;;;12911564;23;20028;-88
2023/05/22 09:29:58;;;;;;;11.80;10.02;;;;;;;;;;12914821;23;20510;-88
2023/05/22 09:35:05;;;;;;;10.73;8.82;;;;;;;;;;12883066;23;20024;-91
2023/05/22 09:40:12;;;;;;;10.88;9.02;;;;;;;;;;12913887;23;20036;-88
2023/05/22 09:45:21;;;;;;;10.85;8.07;;;;;;;;;;12884298;23;20395;-90
2023/05/22 09:50:25;;;;;;;8.85;7.70;;;;;;;;;;12909492;23;20039;-87
2023/05/22 09:55:28;;;;;;;15.75;10.75;;;;;;;;;;12884260;23;20470;-87
2023/05/22 10:00:35;;;;;;;11.00;9.48;;;;;;;;;;12909506;23;20050;-87
2023/05/22 10:05:43;;;;;;;17.52;13.32;;;;;;;;;;12884543;23;20071;-87
2023/05/22 10:10:52;;;;;;;13.63;10.35;;;;;;;;;;12897059;23;20084;-89
2023/05/22 10:15:58;;;;;;;9.85;8.63;;;;;;;;;;12884859;23;20103;-87
2023/05/22 10:21:03;;;;;;;11.68;8.98;;;;;;;;;;12882981;23;20047;-90
2023/05/22 10:26:07;;;;;;;8.98;7.50;;;;;;;;;;12885069;23;20020;-91
2023/05/22 10:31:19;;;;;;;12.10;9.95;;;;;;;;;;12928060;23;20051;-87
2023/05/22 10:37:10;;;;;;;8.82;7.63;;;;;;;;;;12903917;23;20024;-88
2023/05/22 10:42:18;;;;;;;10.23;8.45;;;;;;;;;;12884882;23;20048;-87
2023/05/22 10:47:25;;;;;;;7.72;6.13;;;;;;;;;;12884866;23;20074;-91
2023/05/22 10:52:28;;;;;;;8.07;7.10;;;;;;;;;;12883874;23;20024;-88
2023/05/22 10:57:34;;;;;;;8.40;7.28;;;;;;;;;;12884008;23;20028;-88
2023/05/22 11:02:44;;;;;;;13.68;11.60;;;;;;;;;;12883212;23;20024;-89
2023/05/22 11:08:08;;;;;;;11.68;9.45;;;;;;;;;;12839250;23;20825;-85
2023/05/22 11:13:12;;;;;;;8.25;7.43;;;;;;;;;;12811194;23;20600;-85
2023/05/22 11:18:17;;;;;;;12.77;10.65;;;;;;;;;;12837318;23;20075;-84
2023/05/22 11:23:22;;;;;;;10.63;8.55;;;;;;;;;;12836468;23;20028;-84
2023/05/22 11:28:26;;;;;;;11.38;8.43;;;;;;;;;;12811533;23;20548;-85
2023/05/22 11:33:31;;;;;;;12.13;10.52;;;;;;;;;;12836455;23;20465;-84
2023/05/22 11:38:35;;;;;;;16.27;12.07;;;;;;;;;;12840265;23;20029;-84
2023/05/22 11:43:42;;;;;;;17.23;13.55;;;;;;;;;;12839348;23;20399;-85
2023/05/22 11:48:48;;;;;;;13.43;10.85;;;;;;;;;;12813632;23;20024;-85
2023/05/22 11:53:52;;;;;;;;;;;;;;;;;;12841322;23;20028;-84
2023/05/22 11:58:56;;;;;;;11.75;10.13;;;;;;;;;;12837389;23;19920;-84
2023/05/22 12:04:00;;;;;;;11.27;9.30;;;;;;;;;;12813693;23;20035;-84
2023/05/22 12:09:06;;;;;;;10.30;8.85;;;;;;;;;;12842238;23;20027;-83
2023/05/22 12:14:12;;;;;;;8.98;7.57;;;;;;;;;;12844234;23;20025;-85
2023/05/22 12:19:18;;;;;;;11.05;8.05;;;;;;;;;;12817024;23;20021;-84
2023/05/22 12:24:22;;;;;;;10.88;8.88;;;;;;;;;;12816322;23;20021;-84
2023/05/22 12:29:25;;;;;;;10.70;9.55;;;;;;;;;;12849048;23;20044;-84
2023/05/22 12:34:33;;;;;;;9.45;7.47;;;;;;;;;;12847666;23;20075;-83
2023/05/22 12:39:37;;;;;;;9.82;8.02;;;;;;;;;;12846688;23;20086;-84
2023/05/22 12:44:40;;;;;;;11.68;8.88;;;;;;;;;;12841055;23;20044;-84
2023/05/22 12:49:45;;;;;;;14.05;12.05;;;;;;;;;;12815426;23;20074;-84
2023/05/22 12:54:48;;;;;;;14.55;12.38;;;;;;;;;;12815304;23;20036;-84
2023/05/22 12:59:51;;;;;;;14.43;11.32;;;;;;;;;;12817452;23;20522;-84
2023/05/22 13:04:56;;;;;;;14.43;11.20;;;;;;;;;;12843023;23;20112;-84
2023/05/22 13:09:59;;;;;;;11.25;9.48;;;;;;;;;;12815140;23;20090;-84
2023/05/22 13:15:03;;;;;;;12.45;10.00;;;;;;;;;;12841723;23;20096;-84
2023/05/22 13:20:09;;;;;;;13.60;10.35;;;;;;;;;;12815907;23;20020;-85
2023/05/22 13:25:13;;;;;;;8.95;8.05;;;;;;;;;;12839385;23;20021;-84
2023/05/22 13:30:16;;;;;;;11.93;10.40;;;;;;;;;;12815010;23;20028;-85
2023/05/22 13:35:21;;;;;;;11.07;9.70;;;;;;;;;;12812738;23;20087;-85
2023/05/22 13:40:24;;;;;;;;;;;;;;;;;;12813725;23;20409;-85
2023/05/22 13:45:28;;;;;;;10.85;8.93;;;;;;;;;;12842721;23;19916;-84
2023/05/22 13:50:32;;;;;;;13.73;11.27;;;;;;;;;;12844003;23;20063;-84
2023/05/22 13:55:36;;;;;;;16.20;12.32;;;;;;;;;;12814690;23;20067;-85
2023/05/22 14:00:39;;;;;;;12.15;9.10;;;;;;;;;;12841411;23;20032;-85
2023/05/22 14:05:46;;;;;;;13.82;10.93;;;;;;;;;;12860661;23;20020;-84
2023/05/22 14:10:49;;;;;;;11.40;9.82;;;;;;;;;;12813646;23;20052;-85
2023/05/22 14:15:52;;;;;;;11.20;10.00;;;;;;;;;;12815342;23;20043;-84
2023/05/22 14:20:57;;;;;;;15.30;11.32;;;;;;;;;;12840916;23;20444;-84
2023/05/22 14:26:00;;;;;;;9.88;8.50;;;;;;;;;;12840718;23;20670;-84
2023/05/22 14:31:04;;;;;;;19.00;13.20;;;;;;;;;;12839234;23;20075;-85
2023/05/22 14:36:08;;;;;;;10.82;9.68;;;;;;;;;;12860253;23;20017;-84
2023/05/22 14:41:12;;;;;;;12.98;9.77;;;;;;;;;;12840066;23;20036;-84
2023/05/22 14:46:15;;;;;;;10.70;9.43;;;;;;;;;;12840381;23;20020;-85
2023/05/22 14:51:21;;;;;;;11.88;9.85;;;;;;;;;;12837775;23;20074;-85
2023/05/22 14:56:25;;;;;;;9.93;8.50;;;;;;;;;;12812138;23;20531;-84
2023/05/22 15:01:28;;;;;;;12.17;10.87;;;;;;;;;;12812083;23;20027;-84
2023/05/22 15:06:33;;;;;;;9.32;8.35;;;;;;;;;;12811873;23;20020;-85
2023/05/22 15:11:36;;;;;;;17.08;12.02;;;;;;;;;;12812656;23;20043;-85
2023/05/22 15:16:40;;;;;;;14.95;11.65;;;;;;;;;;12839975;23;20108;-84
2023/05/22 15:21:44;;;;;;;12.45;9.23;;;;;;;;;;12843914;23;20217;-87
2023/05/22 15:26:48;;;;;;;15.10;11.32;;;;;;;;;;12845777;23;20179;-87
2023/05/22 15:31:51;;;;;;;13.48;9.80;;;;;;;;;;12842499;23;20047;-86
2023/05/22 15:36:56;;;;;;;12.80;9.18;;;;;;;;;;12844888;23;20051;-86
2023/05/22 15:41:59;;;;;;;13.27;10.43;;;;;;;;;;12858494;23;20035;-86
2023/05/22 15:47:07;;;;;;;11.90;8.07;;;;;;;;;;12859228;23;20103;-86
2023/05/22 15:52:12;;;;;;;15.65;10.90;;;;;;;;;;12816281;23;20048;-85
2023/05/22 15:57:16;;;;;;;10.23;8.33;;;;;;;;;;12815097;23;20063;-86
2023/05/22 16:02:19;;;;;;;10.77;7.68;;;;;;;;;;12814024;23;20059;-85
2023/05/22 16:07:24;;;;;;;13.50;9.25;;;;;;;;;;12816660;23;20020;-85
2023/05/22 16:12:27;;;;;;;12.97;9.73;;;;;;;;;;12817528;23;20028;-85
2023/05/22 16:17:30;;;;;;;12.32;9.18;;;;;;;;;;12812639;23;20406;-85
2023/05/22 16:22:35;;;;;;;12.00;9.18;;;;;;;;;;12835945;23;20029;-86
2023/05/22 16:27:49;;;;;;;17.98;12.05;;;;;;;;;;12806357;23;20071;-85
2023/05/22 16:32:52;;;;;;;10.85;8.15;;;;;;;;;;12830794;23;20040;-86
2023/05/22 16:37:57;;;;;;;14.27;10.43;;;;;;;;;;12835332;23;20048;-85
2023/05/22 16:43:00;;;;;;;17.77;11.50;;;;;;;;;;12835446;23;20100;-86
2023/05/22 16:48:04;;;;;;;15.68;9.85;;;;;;;;;;12846577;23;20066;-84
2023/05/22 16:53:08;;;;;;;12.40;7.88;;;;;;;;;;12811210;23;20020;-84
2023/05/22 16:58:12;;;;;;;14.18;8.63;;;;;;;;;;12837556;23;20044;-84
2023/05/22 17:03:16;;;;;;;20.98;13.93;;;;;;;;;;12812996;23;20033;-83
2023/05/22 17:08:20;;;;;;;12.75;8.75;;;;;;;;;;12813078;23;20021;-84
2023/05/22 17:13:24;;;;;;;12.75;8.82;;;;;;;;;;12841186;23;20040;-84
2023/05/22 17:18:30;;;;;;;18.27;11.32;;;;;;;;;;12816759;23;20012;-84
2023/05/22 17:23:38;;;;;;;16.17;11.20;;;;;;;;;;12840738;23;20025;-84
2023/05/22 17:28:41;;;;;;;17.52;11.30;;;;;;;;;;12840458;23;20407;-84
2023/05/22 17:33:44;;;;;;;12.23;8.40;;;;;;;;;;12841802;23;20035;-84
2023/05/22 17:38:49;;;;;;;15.48;10.30;;;;;;;;;;12844010;23;20543;-84
2023/05/22 17:43:54;;;;;;;12.38;8.25;;;;;;;;;;12842766;23;20070;-84
2023/05/22 17:48:57;;;;;;;13.10;9.48;;;;;;;;;;12840925;23;20416;-83
2023/05/22 17:54:02;;;;;;;13.93;9.23;;;;;;;;;;12816273;23;20111;-84
2023/05/22 17:59:07;;;;;;;17.53;11.37;;;;;;;;;;12841308;23;20027;-84
2023/05/22 18:04:11;;;;;;;10.43;7.40;;;;;;;;;;12815475;23;20032;-84
2023/05/22 18:09:15;;;;;;;10.25;6.85;;;;;;;;;;12817879;23;20020;-84
2023/05/22 18:14:19;;;;;;;7.80;5.45;;;;;;;;;;12841813;23;20091;-84
2023/05/22 18:19:22;;;;;;;18.23;10.57;;;;;;;;;;12842102;23;20021;-84
2023/05/22 18:24:28;;;;;;;9.93;6.72;;;;;;;;;;12839936;23;20048;-86
2023/05/22 18:29:31;;;;;;;;;;;;;;;;;;12843981;23;20021;-85
2023/05/22 18:34:34;;;;;;;16.63;10.07;;;;;;;;;;12847605;23;19987;-85
2023/05/22 18:39:40;;;;;;;14.60;9.57;;;;;;;;;;12845732;23;20131;-84
2023/05/22 18:44:44;;;;;;;19.97;10.77;;;;;;;;;;12841347;23;20079;-85
2023/05/22 18:49:48;;;;;;;14.07;8.55;;;;;;;;;;12820415;23;20513;-84
2023/05/22 18:54:53;;;;;;;12.23;7.63;;;;;;;;;;12847519;23;20032;-84
2023/05/22 18:59:56;;;;;;;17.92;11.77;;;;;;;;;;12837159;23;20020;-86
2023/05/22 19:04:59;;;;;;;22.80;13.00;;;;;;;;;;12816773;23;20047;-84
2023/05/22 19:10:05;;;;;;;16.38;10.52;;;;;;;;;;12844127;23;20363;-85
2023/05/22 19:15:11;;;;;;;24.27;13.48;;;;;;;;;;12845619;23;20051;-85
2023/05/22 19:20:14;;;;;;;24.23;14.02;;;;;;;;;;12827034;23;20017;-85
2023/05/22 19:25:19;;;;;;;20.73;11.60;;;;;;;;;;12852919;23;20028;-85
2023/05/22 19:30:23;;;;;;;22.75;13.95;;;;;;;;;;12854338;23;20034;-85
2023/05/22 19:35:26;;;;;;;21.35;12.88;;;;;;;;;;12853309;23;20372;-86
2023/05/22 19:40:31;;;;;;;15.35;10.07;;;;;;;;;;12849649;23;20027;-83
2023/05/22 19:45:34;;;;;;;19.38;12.60;;;;;;;;;;12813508;23;20021;-86
2023/05/22 19:50:38;;;;;;;19.23;11.38;;;;;;;;;;12849535;23;20016;-85
2023/05/22 19:55:42;;;;;;;17.15;10.55;;;;;;;;;;12872789;23;20032;-85
2023/05/22 20:00:47;;;;;;;32.75;19.38;;;;;;;;;;12822129;23;20020;-84
2023/05/22 20:05:53;;;;;;;21.85;13.25;;;;;;;;;;12822972;23;20052;-87
2023/05/22 20:10:58;;;;;;;22.77;13.95;;;;;;;;;;12815665;23;20664;-88
2023/05/22 20:16:02;;;;;;;19.93;12.27;;;;;;;;;;12816242;23;20083;-86
2023/05/22 20:21:06;;;;;;;24.15;14.27;;;;;;;;;;12816570;23;20020;-88
2023/05/22 20:26:11;;;;;;;25.08;14.73;;;;;;;;;;12820566;23;20511;-87
2023/05/22 20:31:14;;;;;;;19.88;12.52;;;;;;;;;;12816998;23;20055;-86
2023/05/22 20:36:18;;;;;;;18.40;12.63;;;;;;;;;;12840934;23;20021;-87
2023/05/22 20:41:23;;;;;;;36.88;23.42;;;;;;;;;;12836767;23;20683;-86
2023/05/22 20:46:26;;;;;;;27.08;17.05;;;;;;;;;;12815480;23;20028;-87
2023/05/22 20:51:31;;;;;;;18.70;12.23;;;;;;;;;;12865685;23;20096;-88
2023/05/22 20:56:36;;;;;;;21.33;14.55;;;;;;;;;;12866620;23;20024;-87
2023/05/22 21:01:39;;;;;;;15.98;11.07;;;;;;;;;;12849332;23;20028;-87
2023/05/22 21:06:47;;;;;;;20.30;14.23;;;;;;;;;;12846676;23;20024;-87
2023/05/22 21:11:52;;;;;;;23.58;15.55;;;;;;;;;;12850444;23;20029;-85
2023/05/22 21:16:55;;;;;;;19.08;11.85;;;;;;;;;;12852516;23;20028;-84
2023/05/22 21:21:59;;;;;;;19.02;13.38;;;;;;;;;;12826221;23;20066;-86
2023/05/22 21:27:04;;;;;;;16.60;9.90;;;;;;;;;;12867706;23;20816;-85
2023/05/22 21:32:08;;;;;;;16.58;10.07;;;;;;;;;;12851215;23;20460;-85
2023/05/22 21:37:11;;;;;;;16.50;11.18;;;;;;;;;;12852208;23;20016;-86
2023/05/22 21:42:16;;;;;;;14.00;10.95;;;;;;;;;;12850688;23;20020;-86
2023/05/22 21:47:20;;;;;;;16.03;10.33;;;;;;;;;;12868613;23;20020;-85
2023/05/22 21:52:23;;;;;;;13.77;9.52;;;;;;;;;;12853012;23;20032;-85
2023/05/22 21:57:28;;;;;;;18.17;10.82;;;;;;;;;;12867945;23;20349;-85
2023/05/22 22:02:31;;;;;;;13.73;10.23;;;;;;;;;;12828582;23;20024;-86
2023/05/22 22:07:35;;;;;;;14.10;10.15;;;;;;;;;;12829743;23;20067;-85
2023/05/22 22:12:39;;;;;;;16.05;10.90;;;;;;;;;;12856141;23;20059;-85
2023/05/22 22:17:43;;;;;;;14.35;9.68;;;;;;;;;;12839786;23;20027;-85
2023/05/22 22:22:46;;;;;;;14.05;10.18;;;;;;;;;;12853255;23;20686;-85
2023/05/22 22:27:51;;;;;;;12.00;8.02;;;;;;;;;;12824624;23;20051;-85
2023/05/22 22:32:54;;;;;;;11.68;8.38;;;;;;;;;;12849684;23;20089;-84
2023/05/22 22:37:58;;;;;;;14.02;7.38;;;;;;;;;;12822802;23;20528;-85
2023/05/22 22:43:02;;;;;;;11.30;7.68;;;;;;;;;;12846396;23;20653;-86
2023/05/22 22:48:06;;;;;;;9.07;6.50;;;;;;;;;;12820042;23;20419;-87
2023/05/22 22:53:09;;;;;;;10.00;7.28;;;;;;;;;;12818742;23;20028;-86
2023/05/22 22:58:14;;;;;;;12.27;7.35;;;;;;;;;;12856496;23;20104;-87
2023/05/22 23:03:17;;;;;;;11.48;7.53;;;;;;;;;;12816420;23;20078;-84
2023/05/22 23:08:21;;;;;;;11.35;6.65;;;;;;;;;;12854777;23;20024;-86
2023/05/22 23:13:26;;;;;;;9.32;7.07;;;;;;;;;;12818098;23;20067;-86
2023/05/22 23:18:29;;;;;;;8.93;6.72;;;;;;;;;;12849386;23;20716;-86
2023/05/22 23:23:32;;;;;;;11.43;7.75;;;;;;;;;;12847887;23;20024;-85
2023/05/22 23:28:37;;;;;;;11.07;7.18;;;;;;;;;;12825052;23;20039;-86
2023/05/22 23:33:40;;;;;;;8.65;6.53;;;;;;;;;;12828949;23;20024;-85
2023/05/22 23:38:45;;;;;;;11.35;7.50;;;;;;;;;;12825433;23;20380;-85
2023/05/22 23:43:49;;;;;;;7.80;6.22;;;;;;;;;;12861096;23;20017;-85
2023/05/22 23:48:53;;;;;;;5.65;5.00;;;;;;;;;;12827172;23;20468;-86
2023/05/22 23:53:56;;;;;;;7.32;6.10;;;;;;;;;;12824040;23;20032;-85
2023/05/22 23:59:01;;;;;;;7.57;5.95;;;;;;;;;;12822455;23;20500;-86
